createdAt,value
2023-02-19T00:01:49.221Z,13.68
2023-02-19T00:04:19.448Z,14.60
2023-02-19T00:06:47.928Z,14.70
2023-02-19T00:09:16.902Z,14.02
2023-02-19T00:11:46.142Z,15.38
2023-02-19T00:14:16.653Z,16.92
2023-02-19T00:16:44.245Z,13.05
2023-02-19T00:19:14.499Z,14.65
2023-02-19T00:21:43.598Z,18.40
2023-02-19T00:24:12.778Z,15.68
2023-02-19T00:26:41.677Z,19.83
2023-02-19T00:29:10.160Z,19.33
2023-02-19T00:31:37.765Z,18.70
2023-02-19T00:34:06.537Z,16.90
2023-02-19T00:36:35.929Z,16.52
2023-02-19T00:39:05.545Z,13.35
2023-02-19T00:41:33.119Z,15.23
2023-02-19T00:44:02.283Z,12.65
2023-02-19T00:46:31.942Z,12.85
2023-02-19T00:49:00.299Z,11.55
2023-02-19T00:51:30.065Z,12.52
2023-02-19T00:53:57.985Z,15.93
2023-02-19T00:56:27.109Z,11.13
2023-02-19T00:58:54.953Z,13.18
2023-02-19T01:01:22.727Z,9.05
2023-02-19T01:03:51.189Z,10.88
2023-02-19T01:06:20.501Z,10.32
2023-02-19T01:08:48.543Z,10.65
2023-02-19T01:11:16.641Z,10.02
2023-02-19T01:13:45.663Z,10.43
2023-02-19T01:16:15.885Z,9.02
2023-02-19T01:18:44.528Z,10.52
2023-02-19T01:21:15.127Z,12.38
2023-02-19T01:23:43.068Z,12.82
2023-02-19T01:26:14.153Z,11.18
2023-02-19T01:28:42.581Z,12.75
2023-02-19T01:31:14.610Z,14.20
2023-02-19T01:33:46.109Z,15.40
2023-02-19T01:36:13.764Z,14.30
2023-02-19T01:38:41.509Z,19.42
2023-02-19T01:41:11.579Z,18.50
2023-02-19T01:43:59.256Z,18.85
2023-02-19T01:46:29.008Z,23.70
2023-02-19T01:48:59.365Z,25.35
2023-02-19T01:51:27.717Z,28.00
2023-02-19T01:53:58.478Z,24.77
2023-02-19T01:56:27.725Z,25.75
2023-02-19T01:58:55.515Z,25.27
2023-02-19T02:01:23.095Z,20.88
2023-02-19T02:03:52.445Z,22.73
2023-02-19T02:06:23.716Z,20.42
2023-02-19T02:09:11.242Z,20.27
2023-02-19T02:11:41.474Z,18.70
2023-02-19T02:14:09.086Z,17.88
2023-02-19T02:16:45.839Z,15.55
2023-02-19T02:19:32.099Z,18.00
2023-02-19T02:22:07.219Z,16.95
2023-02-19T02:25:06.202Z,18.92
2023-02-19T02:27:46.439Z,24.42
2023-02-19T02:30:38.614Z,29.55
2023-02-19T02:33:16.001Z,27.23
2023-02-19T02:35:48.252Z,29.92
2023-02-19T02:38:18.064Z,32.60
2023-02-19T02:40:46.011Z,28.90
2023-02-19T02:43:14.780Z,29.45
2023-02-19T02:45:43.791Z,29.55
2023-02-19T02:48:18.055Z,30.45
2023-02-19T02:50:51.134Z,34.40
2023-02-19T02:53:41.451Z,29.75
2023-02-19T02:56:11.212Z,26.27
2023-02-19T02:58:39.431Z,29.10
2023-02-19T03:01:30.296Z,31.15
2023-02-19T03:04:03.979Z,24.42
2023-02-19T03:06:35.210Z,29.35
2023-02-19T03:09:10.510Z,29.90
2023-02-19T03:14:49.986Z,28.50
2023-02-19T03:17:42.384Z,28.48
2023-02-19T03:20:14.508Z,29.42
2023-02-19T03:22:45.720Z,28.17
2023-02-19T03:25:33.392Z,32.47
2023-02-19T03:28:04.614Z,26.42
2023-02-19T03:30:35.602Z,32.38
2023-02-19T03:33:09.120Z,32.00
2023-02-19T03:35:41.444Z,31.90
2023-02-19T03:38:18.531Z,32.95
2023-02-19T03:40:53.725Z,26.33
2023-02-19T03:43:25.036Z,31.80
2023-02-19T03:46:03.728Z,33.22
2023-02-19T03:48:35.710Z,32.00
2023-02-19T03:51:13.888Z,27.83
2023-02-19T03:53:52.915Z,26.42
2023-02-19T03:56:26.927Z,29.00
2023-02-19T03:59:00.364Z,26.38
2023-02-19T04:01:33.318Z,22.42
2023-02-19T04:04:07.144Z,27.30
2023-02-19T04:06:36.231Z,29.70
2023-02-19T04:09:07.956Z,29.90
2023-02-19T04:11:37.553Z,27.48
2023-02-19T04:14:10.778Z,25.60
2023-02-19T04:16:42.337Z,25.70
2023-02-19T04:19:14.328Z,23.95
2023-02-19T04:21:43.132Z,28.08
2023-02-19T04:24:14.687Z,24.48
2023-02-19T04:26:43.454Z,25.30
2023-02-19T04:29:10.910Z,26.65
2023-02-19T04:31:39.515Z,24.38
2023-02-19T04:34:07.018Z,23.45
2023-02-19T04:36:35.895Z,28.33
2023-02-19T04:39:03.810Z,19.42
2023-02-19T04:41:31.507Z,24.73
2023-02-19T04:43:58.989Z,22.40
2023-02-19T04:46:26.481Z,26.58
2023-02-19T04:48:53.972Z,28.73
2023-02-19T04:51:21.497Z,29.70
2023-02-19T04:53:50.403Z,23.70
2023-02-19T04:56:18.775Z,27.65
2023-02-19T04:58:46.936Z,22.77
2023-02-19T05:01:15.197Z,24.38
2023-02-19T05:03:42.742Z,27.15
2023-02-19T05:06:13.025Z,20.63
2023-02-19T05:08:41.118Z,26.05
2023-02-19T05:11:12.706Z,22.40
2023-02-19T05:13:41.236Z,21.38
2023-02-19T05:16:13.179Z,27.20
2023-02-19T05:18:41.681Z,25.50
2023-02-19T05:21:10.149Z,23.92
2023-02-19T05:23:38.216Z,21.08
2023-02-19T05:26:07.208Z,21.40
2023-02-19T05:28:36.288Z,21.33
2023-02-19T05:31:06.581Z,27.30
2023-02-19T05:33:34.303Z,29.63
2023-02-19T05:36:06.622Z,26.30
2023-02-19T05:38:34.128Z,28.15
2023-02-19T05:41:09.278Z,27.45
2023-02-19T05:43:38.411Z,29.88
2023-02-19T05:46:06.587Z,28.67
2023-02-19T05:48:34.515Z,29.02
2023-02-19T05:51:04.019Z,25.85
2023-02-19T05:53:32.192Z,29.60
2023-02-19T05:56:00.240Z,32.22
2023-02-19T05:58:28.220Z,29.95
2023-02-19T06:00:57.183Z,33.42
2023-02-19T06:03:25.613Z,31.13
2023-02-19T06:05:53.103Z,29.80
2023-02-19T06:08:20.601Z,29.60
2023-02-19T06:10:48.095Z,32.22
2023-02-19T06:13:17.729Z,27.88
2023-02-19T06:15:45.417Z,26.05
2023-02-19T06:18:14.282Z,30.25
2023-02-19T06:20:41.788Z,23.13
2023-02-19T06:23:09.250Z,24.40
2023-02-19T06:25:36.727Z,31.15
2023-02-19T06:28:04.696Z,28.35
2023-02-19T06:30:32.211Z,26.55
2023-02-19T06:32:59.704Z,23.25
2023-02-19T06:35:28.600Z,24.73
2023-02-19T06:37:56.056Z,21.00
2023-02-19T06:40:23.578Z,30.08
2023-02-19T06:42:51.047Z,21.77
2023-02-19T06:45:18.674Z,22.23
2023-02-19T06:47:46.137Z,25.40
2023-02-19T06:50:13.595Z,20.98
2023-02-19T06:52:42.369Z,19.30
2023-02-19T06:55:10.090Z,23.80
2023-02-19T06:57:37.563Z,22.88
2023-02-19T07:00:05.796Z,22.52
2023-02-19T07:02:33.279Z,24.10
2023-02-19T07:05:00.747Z,24.33
2023-02-19T07:07:28.209Z,28.38
2023-02-19T07:09:57.015Z,24.15
2023-02-19T07:12:24.499Z,20.95
2023-02-19T07:14:51.967Z,35.08
2023-02-19T07:17:19.569Z,21.83
2023-02-19T07:19:47.056Z,30.42
2023-02-19T07:22:14.544Z,29.58
2023-02-19T07:24:42.006Z,27.45
2023-02-19T07:27:10.815Z,24.85
2023-02-19T07:29:38.308Z,33.15
2023-02-19T07:32:05.922Z,24.58
2023-02-19T07:34:33.413Z,26.15
2023-02-19T07:37:00.888Z,20.75
2023-02-19T07:39:28.371Z,20.98
2023-02-19T07:41:55.939Z,19.45
2023-02-19T07:44:24.736Z,21.13
2023-02-19T07:46:52.237Z,25.38
2023-02-19T07:49:20.015Z,23.38
2023-02-19T07:51:47.506Z,22.92
2023-02-19T07:54:14.974Z,27.33
2023-02-19T07:56:42.444Z,25.85
2023-02-19T07:59:10.603Z,25.83
2023-02-19T08:01:56.921Z,25.70
2023-02-19T08:04:24.438Z,25.40
2023-02-19T08:06:54.288Z,27.83
2023-02-19T08:09:21.777Z,29.70
2023-02-19T08:12:06.778Z,22.23
2023-02-19T08:14:34.275Z,20.70
2023-02-19T08:17:05.403Z,19.13
2023-02-19T08:19:32.928Z,18.00
2023-02-19T08:22:02.907Z,21.50
2023-02-19T08:24:33.850Z,15.15
2023-02-19T08:27:03.677Z,20.55
2023-02-19T08:29:31.152Z,16.10
2023-02-19T08:32:01.075Z,24.58
2023-02-19T08:34:31.979Z,25.42
2023-02-19T08:37:00.763Z,25.08
2023-02-19T08:39:28.256Z,21.95
2023-02-19T08:41:55.735Z,25.83
2023-02-19T08:44:23.200Z,27.20
2023-02-19T08:46:50.689Z,22.80
2023-02-19T08:49:18.171Z,25.27
2023-02-19T08:51:47.020Z,25.75
2023-02-19T08:54:14.483Z,31.65
2023-02-19T08:56:41.981Z,25.70
2023-02-19T08:59:09.439Z,24.70
2023-02-19T09:01:37.026Z,21.90
2023-02-19T09:04:04.645Z,22.50
2023-02-19T09:06:32.141Z,23.80
2023-02-19T09:09:00.945Z,26.38
2023-02-19T09:11:28.503Z,28.42
2023-02-19T09:13:57.417Z,24.83
2023-02-19T09:16:24.948Z,24.05
2023-02-19T09:18:52.432Z,29.80
2023-02-19T09:21:19.921Z,26.92
2023-02-19T09:23:47.398Z,22.02
2023-02-19T09:26:16.381Z,21.17
2023-02-19T09:28:43.892Z,21.30
2023-02-19T09:31:13.843Z,24.58
2023-02-19T09:33:44.244Z,21.25
2023-02-19T09:36:12.244Z,23.45
2023-02-19T09:38:40.471Z,23.60
2023-02-19T09:41:11.176Z,22.08
2023-02-19T09:43:40.208Z,23.92
2023-02-19T09:46:15.624Z,22.83
2023-02-19T09:48:43.147Z,22.73
2023-02-19T09:51:13.362Z,18.25
2023-02-19T09:53:44.714Z,23.75
2023-02-19T09:56:12.457Z,16.52
2023-02-19T09:58:48.831Z,23.40
2023-02-19T10:01:16.866Z,15.95
2023-02-19T10:03:47.020Z,15.95
2023-02-19T10:06:20.721Z,17.30
2023-02-19T10:08:50.660Z,18.75
2023-02-19T10:11:19.214Z,17.30
2023-02-19T10:13:52.701Z,19.65
2023-02-19T10:16:26.249Z,17.58
2023-02-19T10:18:54.357Z,19.17
2023-02-19T10:21:24.081Z,17.33
2023-02-19T10:23:55.479Z,21.90
2023-02-19T10:26:23.447Z,18.30
2023-02-19T10:28:54.027Z,19.60
2023-02-19T10:31:24.910Z,17.10
2023-02-19T10:33:53.978Z,19.98
2023-02-19T10:36:30.527Z,18.83
2023-02-19T10:39:01.261Z,17.48
2023-02-19T10:41:29.859Z,23.77
2023-02-19T10:44:05.082Z,14.30
2023-02-19T10:49:04.971Z,12.10
2023-02-19T10:51:35.144Z,12.40
2023-02-19T10:54:08.043Z,11.73
2023-02-19T10:56:38.403Z,10.10
2023-02-19T10:59:26.180Z,8.57
2023-02-19T11:01:58.460Z,12.63
2023-02-19T11:04:27.252Z,9.68
2023-02-19T11:06:55.186Z,11.68
2023-02-19T11:09:27.912Z,11.57
2023-02-19T11:11:57.307Z,10.95
2023-02-19T11:14:28.289Z,7.07
2023-02-19T11:16:58.038Z,13.65
2023-02-19T11:19:30.025Z,8.98
2023-02-19T11:21:58.722Z,14.73
2023-02-19T11:24:33.748Z,14.38
2023-02-19T11:27:04.007Z,15.45
2023-02-19T11:29:34.837Z,16.02
2023-02-19T11:32:25.019Z,15.40
2023-02-19T11:34:53.256Z,10.27
2023-02-19T11:37:22.500Z,10.73
2023-02-19T11:39:52.193Z,9.93
2023-02-19T11:42:37.710Z,8.35
2023-02-19T11:45:23.387Z,13.77
2023-02-19T11:50:49.403Z,6.78
2023-02-19T11:53:26.022Z,7.20
2023-02-19T11:56:06.748Z,7.68
2023-02-19T11:58:52.705Z,8.57
2023-02-19T12:01:28.792Z,10.90
2023-02-19T12:04:09.791Z,11.40
2023-02-19T12:06:52.038Z,7.40
2023-02-19T12:09:38.657Z,10.38
2023-02-19T12:12:20.790Z,12.15
2023-02-19T12:15:07.355Z,11.13
2023-02-19T12:18:04.006Z,11.85
2023-02-19T12:20:41.880Z,6.93
2023-02-19T12:23:39.847Z,8.63
2023-02-19T12:26:13.600Z,9.48
2023-02-19T12:28:58.482Z,8.48
2023-02-19T12:31:43.150Z,4.57
2023-02-19T12:34:56.560Z,4.13
2023-02-19T12:37:37.380Z,5.53
2023-02-19T12:40:23.884Z,3.28
2023-02-19T12:43:02.706Z,5.65
2023-02-19T12:45:35.528Z,5.63
2023-02-19T12:48:10.717Z,6.82
2023-02-19T12:50:40.326Z,5.00
2023-02-19T12:53:25.746Z,6.65
2023-02-19T12:55:54.327Z,6.45
2023-02-19T12:58:28.909Z,4.00
2023-02-19T13:00:59.632Z,4.97
2023-02-19T13:03:33.489Z,8.63
2023-02-19T13:06:09.704Z,6.95
2023-02-19T13:09:03.511Z,5.70
2023-02-19T13:11:37.572Z,6.55
2023-02-19T13:14:15.919Z,4.80
2023-02-19T13:16:47.588Z,4.32
2023-02-19T13:19:15.182Z,6.40
2023-02-19T13:22:03.162Z,3.88
2023-02-19T13:24:36.248Z,5.70
2023-02-19T13:27:29.419Z,4.63
2023-02-19T13:30:09.348Z,5.68
2023-02-19T13:32:54.354Z,4.85
2023-02-19T13:35:28.668Z,5.82
2023-02-19T13:38:01.202Z,7.30
2023-02-19T13:40:34.777Z,4.60
2023-02-19T13:43:05.320Z,4.22
2023-02-19T13:45:36.734Z,4.65
2023-02-19T13:48:15.828Z,4.38
2023-02-19T13:50:43.399Z,3.25
2023-02-19T13:53:48.424Z,4.70
2023-02-19T13:56:38.923Z,4.85
2023-02-19T13:59:34.766Z,5.47
2023-02-19T14:02:26.428Z,7.35
2023-02-19T14:04:56.875Z,4.25
2023-02-19T14:08:03.343Z,4.43
2023-02-19T14:14:06.336Z,6.45
2023-02-19T14:17:05.499Z,3.42
2023-02-19T14:19:52.101Z,7.80
2023-02-19T14:23:11.806Z,7.13
2023-02-19T14:25:46.349Z,5.88
2023-02-19T14:28:29.860Z,5.38
2023-02-19T14:31:03.317Z,7.97
2023-02-19T14:33:33.677Z,7.47
2023-02-19T14:36:06.663Z,7.18
2023-02-19T14:38:38.224Z,11.40
2023-02-19T14:41:07.538Z,7.90
2023-02-19T14:43:37.345Z,9.00
2023-02-19T14:46:19.080Z,6.72
2023-02-19T14:48:50.016Z,7.47
2023-02-19T14:51:26.984Z,7.57
2023-02-19T14:53:56.256Z,6.03
2023-02-19T14:56:26.917Z,8.52
2023-02-19T14:59:08.879Z,8.27
2023-02-19T15:01:38.245Z,8.15
2023-02-19T15:04:06.471Z,11.65
2023-02-19T15:06:36.726Z,9.35
2023-02-19T15:09:07.161Z,11.50
2023-02-19T15:11:36.518Z,12.93
2023-02-19T15:14:06.867Z,11.35
2023-02-19T15:16:36.914Z,9.38
2023-02-19T15:19:10.013Z,11.27
2023-02-19T15:21:40.911Z,9.65
2023-02-19T15:24:08.817Z,10.73
2023-02-19T15:26:38.433Z,13.20
2023-02-19T15:29:11.704Z,13.73
2023-02-19T15:31:46.014Z,15.15
2023-02-19T15:34:19.833Z,12.53
2023-02-19T15:36:49.051Z,17.48
2023-02-19T15:39:24.942Z,12.68
2023-02-19T15:42:00.088Z,13.68
2023-02-19T15:44:35.393Z,14.25
2023-02-19T15:47:10.239Z,13.45
2023-02-19T15:49:47.393Z,16.05
2023-02-19T15:52:26.969Z,16.65
2023-02-19T15:54:59.048Z,9.48
2023-02-19T15:57:33.519Z,12.18
2023-02-19T16:00:07.091Z,19.20
2023-02-19T16:02:35.042Z,12.38
2023-02-19T16:05:12.941Z,13.43
2023-02-19T16:07:40.438Z,13.50
2023-02-19T16:10:19.694Z,11.15
2023-02-19T16:12:56.303Z,15.25
2023-02-19T16:15:23.883Z,11.27
2023-02-19T16:17:51.611Z,12.82
2023-02-19T16:20:24.852Z,18.08
2023-02-19T16:22:57.235Z,12.27
2023-02-19T16:25:29.267Z,14.57
2023-02-19T16:27:57.403Z,12.07
2023-02-19T16:30:29.499Z,14.15
2023-02-19T16:33:22.924Z,12.48
2023-02-19T16:35:52.709Z,13.13
2023-02-19T16:38:21.705Z,15.40
2023-02-19T16:41:13.626Z,17.27
2023-02-19T16:43:42.917Z,16.13
2023-02-19T16:46:12.718Z,18.92
2023-02-19T16:48:40.542Z,12.93
2023-02-19T16:51:16.441Z,23.48
2023-02-19T16:53:43.919Z,16.30
2023-02-19T16:56:16.393Z,15.50
2023-02-19T16:58:43.989Z,18.13
2023-02-19T17:01:12.008Z,16.08
2023-02-19T17:03:40.503Z,17.58
2023-02-19T17:06:09.420Z,18.65
2023-02-19T17:08:39.013Z,17.63
2023-02-19T17:11:08.123Z,18.88
2023-02-19T17:13:35.606Z,15.63
2023-02-19T17:16:03.638Z,10.52
2023-02-19T17:18:31.132Z,13.02
2023-02-19T17:21:02.982Z,10.82
2023-02-19T17:23:31.873Z,6.78
2023-02-19T17:25:59.379Z,7.60
2023-02-19T17:28:26.936Z,7.40
2023-02-19T17:30:55.012Z,9.25
2023-02-19T17:33:22.546Z,9.32
2023-02-19T17:35:50.067Z,10.25
2023-02-19T17:38:17.538Z,9.38
2023-02-19T17:40:46.389Z,10.02
2023-02-19T17:43:14.565Z,8.88
2023-02-19T17:45:42.229Z,6.57
2023-02-19T17:48:12.827Z,9.55
2023-02-19T17:50:41.175Z,9.27
2023-02-19T17:53:09.271Z,9.68
2023-02-19T17:55:36.763Z,8.15
2023-02-19T17:58:05.626Z,9.65
2023-02-19T18:00:33.185Z,6.03
2023-02-19T18:03:00.696Z,7.00
2023-02-19T18:05:28.135Z,9.73
2023-02-19T18:07:55.716Z,9.63
2023-02-19T18:10:24.559Z,9.07
2023-02-19T18:12:52.410Z,7.68
2023-02-19T18:15:23.382Z,9.73
2023-02-19T18:17:51.392Z,9.57
2023-02-19T18:20:21.348Z,9.88
2023-02-19T18:22:48.794Z,7.38
2023-02-19T18:25:16.955Z,9.13
2023-02-19T18:27:44.610Z,8.30
2023-02-19T18:30:15.433Z,9.60
2023-02-19T18:32:44.337Z,9.45
2023-02-19T18:35:12.362Z,11.45
2023-02-19T18:37:39.846Z,11.07
2023-02-19T18:40:08.545Z,10.88
2023-02-19T18:42:36.220Z,9.75
2023-02-19T18:45:04.246Z,10.77
2023-02-19T18:47:31.734Z,16.33
2023-02-19T18:50:00.558Z,13.98
2023-02-19T18:52:29.017Z,12.25
2023-02-19T18:54:57.733Z,11.25
2023-02-19T18:57:26.243Z,10.25
2023-02-19T18:59:54.227Z,8.20
2023-02-19T19:02:21.861Z,7.40
2023-02-19T19:04:51.477Z,8.55
2023-02-19T19:07:21.127Z,7.35
2023-02-19T19:09:48.937Z,7.07
2023-02-19T19:12:16.877Z,5.70
2023-02-19T19:14:45.573Z,6.82
2023-02-19T19:17:13.023Z,6.70
2023-02-19T19:19:41.194Z,6.55
2023-02-19T19:22:08.718Z,7.43
2023-02-19T19:24:37.565Z,6.93
2023-02-19T19:27:05.248Z,7.43
2023-02-19T19:29:32.862Z,7.40
2023-02-19T19:32:00.378Z,7.07
2023-02-19T19:34:27.900Z,7.57
2023-02-19T19:36:55.401Z,5.25
2023-02-19T19:39:22.894Z,5.50
2023-02-19T19:41:55.939Z,5.45
2023-02-19T19:44:23.970Z,5.50
2023-02-19T19:46:51.668Z,4.75
2023-02-19T19:49:19.825Z,5.30
2023-02-19T19:51:47.812Z,6.38
2023-02-19T19:54:15.802Z,6.93
2023-02-19T19:56:44.703Z,7.35
2023-02-19T19:59:15.206Z,6.25
2023-02-19T20:01:49.586Z,5.65
2023-02-19T20:04:17.289Z,7.10
2023-02-19T20:06:44.804Z,5.78
2023-02-19T20:09:12.862Z,6.97
2023-02-19T20:11:47.507Z,6.07
2023-02-19T20:14:17.448Z,6.45
2023-02-19T20:16:47.352Z,6.35
2023-02-19T20:19:15.551Z,7.95
2023-02-19T20:21:45.462Z,9.05
2023-02-19T20:24:15.136Z,7.05
2023-02-19T20:26:42.819Z,8.02
2023-02-19T20:29:11.010Z,8.48
2023-02-19T20:31:40.621Z,8.70
2023-02-19T20:34:08.287Z,10.45
2023-02-19T20:36:43.340Z,8.88
2023-02-19T20:39:10.883Z,11.75
2023-02-19T20:41:38.487Z,13.57
2023-02-19T20:44:06.338Z,12.25
2023-02-19T20:46:33.868Z,17.92
2023-02-19T20:49:02.744Z,18.20
2023-02-19T20:51:30.272Z,17.85
2023-02-19T20:53:58.258Z,20.77
2023-02-19T20:56:25.780Z,16.55
2023-02-19T20:58:53.259Z,17.40
2023-02-19T21:01:26.570Z,15.60
2023-02-19T21:03:54.469Z,13.30
2023-02-19T21:06:23.286Z,14.13
2023-02-19T21:08:50.769Z,16.60
2023-02-19T21:11:18.520Z,15.85
2023-02-19T21:13:46.008Z,14.77
2023-02-19T21:16:13.929Z,15.35
2023-02-19T21:18:41.600Z,14.02
2023-02-19T21:21:09.136Z,13.52
2023-02-19T21:23:37.937Z,13.45
2023-02-19T21:26:05.945Z,13.20
2023-02-19T21:28:33.400Z,11.35
2023-02-19T21:31:00.923Z,13.60
2023-02-19T21:33:28.517Z,13.13
2023-02-19T21:35:57.396Z,14.20
2023-02-19T21:38:25.168Z,14.57
2023-02-19T21:40:53.984Z,14.02
2023-02-19T21:43:21.497Z,15.73
2023-02-19T21:45:49.086Z,12.93
2023-02-19T21:48:16.608Z,15.32
2023-02-19T21:50:45.576Z,12.88
2023-02-19T21:53:13.083Z,11.88
2023-02-19T21:55:42.941Z,13.10
2023-02-19T21:58:18.836Z,9.52
2023-02-19T22:00:46.318Z,12.30
2023-02-19T22:03:16.454Z,10.35
2023-02-19T22:05:44.142Z,10.50
2023-02-19T22:08:11.766Z,11.27
2023-02-19T22:10:42.272Z,10.95
2023-02-19T22:13:09.852Z,12.63
2023-02-19T22:15:38.675Z,10.27
2023-02-19T22:18:06.738Z,13.80
2023-02-19T22:20:34.665Z,12.85
2023-02-19T22:23:02.144Z,11.30
2023-02-19T22:25:29.604Z,16.70
2023-02-19T22:27:58.920Z,11.30
2023-02-19T22:30:27.677Z,12.75
2023-02-19T22:32:56.541Z,10.77
2023-02-19T22:35:24.021Z,9.13
2023-02-19T22:37:51.594Z,11.50
2023-02-19T22:40:19.098Z,7.63
2023-02-19T22:42:46.795Z,7.57
2023-02-19T22:45:15.120Z,8.43
2023-02-19T22:47:43.660Z,6.22
2023-02-19T22:50:19.501Z,7.63
2023-02-19T22:52:46.971Z,6.13
2023-02-19T22:55:14.501Z,5.00
2023-02-19T22:57:41.988Z,5.28
2023-02-19T23:00:10.536Z,4.35
2023-02-19T23:02:38.033Z,4.93
2023-02-19T23:05:05.788Z,4.72
2023-02-19T23:07:34.608Z,5.18
2023-02-19T23:10:02.090Z,4.32
2023-02-19T23:12:29.766Z,8.18
2023-02-19T23:14:57.238Z,4.00
2023-02-19T23:17:24.706Z,6.85
2023-02-19T23:19:52.179Z,3.97
2023-02-19T23:22:19.963Z,4.38
2023-02-19T23:24:48.803Z,5.22
2023-02-19T23:27:16.413Z,5.13
2023-02-19T23:29:43.870Z,4.25
2023-02-19T23:32:11.707Z,4.07
2023-02-19T23:34:39.199Z,3.60
2023-02-19T23:37:06.671Z,3.38
2023-02-19T23:39:34.146Z,2.97
2023-02-19T23:42:02.963Z,4.60
2023-02-19T23:44:30.432Z,3.85
2023-02-19T23:46:58.012Z,3.55
2023-02-19T23:49:25.522Z,4.85
2023-02-19T23:51:53.121Z,3.88
2023-02-19T23:54:20.661Z,3.92
2023-02-19T23:56:48.114Z,7.53
2023-02-19T23:59:16.974Z,8.15
